sensor_id;sensor_type;location;lat;lon;timestamp;P1;durP1;ratioP1;P2;durP2;ratioP2
51838;SDS011;37886;53.174;6.368;2023-05-19T00:01:10;28.10;;;12.57;;
51838;SDS011;37886;53.174;6.368;2023-05-19T00:03:51;26.60;;;12.93;;
51838;SDS011;37886;53.174;6.368;2023-05-19T00:06:25;23.05;;;12.52;;
51838;SDS011;37886;53.174;6.368;2023-05-19T00:08:59;19.88;;;12.95;;
51838;SDS011;37886;53.174;6.368;2023-05-19T00:11:35;26.98;;;12.52;;
51838;SDS011;37886;53.174;6.368;2023-05-19T00:14:03;26.52;;;12.50;;
51838;SDS011;37886;53.174;6.368;2023-05-19T00:16:30;23.77;;;12.25;;
51838;SDS011;37886;53.174;6.368;2023-05-19T00:18:57;32.97;;;12.45;;
51838;SDS011;37886;53.174;6.368;2023-05-19T00:21:26;24.23;;;12.60;;
51838;SDS011;37886;53.174;6.368;2023-05-19T00:23:53;25.92;;;12.85;;
51838;SDS011;37886;53.174;6.368;2023-05-19T00:26:20;31.05;;;12.55;;
51838;SDS011;37886;53.174;6.368;2023-05-19T00:28:46;24.23;;;12.50;;
51838;SDS011;37886;53.174;6.368;2023-05-19T00:31:13;24.83;;;11.35;;
51838;SDS011;37886;53.174;6.368;2023-05-19T00:33:39;25.02;;;11.82;;
51838;SDS011;37886;53.174;6.368;2023-05-19T00:36:04;20.42;;;11.90;;
51838;SDS011;37886;53.174;6.368;2023-05-19T00:38:31;28.95;;;12.07;;
51838;SDS011;37886;53.174;6.368;2023-05-19T00:40:58;25.63;;;12.07;;
51838;SDS011;37886;53.174;6.368;2023-05-19T00:43:25;27.55;;;13.52;;
51838;SDS011;37886;53.174;6.368;2023-05-19T00:45:50;28.23;;;11.73;;
51838;SDS011;37886;53.174;6.368;2023-05-19T00:48:16;24.42;;;12.20;;
51838;SDS011;37886;53.174;6.368;2023-05-19T00:50:42;18.30;;;11.38;;
51838;SDS011;37886;53.174;6.368;2023-05-19T00:53:09;25.50;;;12.50;;
51838;SDS011;37886;53.174;6.368;2023-05-19T00:55:35;26.95;;;11.70;;
51838;SDS011;37886;53.174;6.368;2023-05-19T00:58:03;25.85;;;12.25;;
51838;SDS011;37886;53.174;6.368;2023-05-19T01:00:31;20.52;;;11.85;;
51838;SDS011;37886;53.174;6.368;2023-05-19T01:02:56;28.63;;;12.02;;
51838;SDS011;37886;53.174;6.368;2023-05-19T01:05:22;25.45;;;11.50;;
51838;SDS011;37886;53.174;6.368;2023-05-19T01:07:48;21.80;;;11.30;;
51838;SDS011;37886;53.174;6.368;2023-05-19T01:10:18;18.08;;;11.82;;
51838;SDS011;37886;53.174;6.368;2023-05-19T01:12:44;28.27;;;11.80;;
51838;SDS011;37886;53.174;6.368;2023-05-19T01:15:10;24.15;;;11.20;;
51838;SDS011;37886;53.174;6.368;2023-05-19T01:17:47;21.75;;;11.35;;
51838;SDS011;37886;53.174;6.368;2023-05-19T01:26:15;26.35;;;11.35;;
51838;SDS011;37886;53.174;6.368;2023-05-19T01:29:13;27.17;;;11.52;;
51838;SDS011;37886;53.174;6.368;2023-05-19T01:31:52;22.92;;;11.35;;
51838;SDS011;37886;53.174;6.368;2023-05-19T01:36:50;25.77;;;10.95;;
51838;SDS011;37886;53.174;6.368;2023-05-19T01:39:19;23.10;;;11.23;;
51838;SDS011;37886;53.174;6.368;2023-05-19T01:41:45;24.65;;;11.57;;
51838;SDS011;37886;53.174;6.368;2023-05-19T01:44:12;22.55;;;10.65;;
51838;SDS011;37886;53.174;6.368;2023-05-19T01:46:38;20.45;;;11.48;;
51838;SDS011;37886;53.174;6.368;2023-05-19T01:49:05;19.13;;;10.75;;
51838;SDS011;37886;53.174;6.368;2023-05-19T01:51:31;26.10;;;10.93;;
51838;SDS011;37886;53.174;6.368;2023-05-19T01:53:57;24.27;;;10.50;;
51838;SDS011;37886;53.174;6.368;2023-05-19T01:56:45;26.27;;;11.85;;
51838;SDS011;37886;53.174;6.368;2023-05-19T01:59:36;21.63;;;10.30;;
51838;SDS011;37886;53.174;6.368;2023-05-19T02:02:16;17.83;;;10.55;;
51838;SDS011;37886;53.174;6.368;2023-05-19T02:07:40;25.25;;;11.10;;
51838;SDS011;37886;53.174;6.368;2023-05-19T02:10:23;21.73;;;10.57;;
51838;SDS011;37886;53.174;6.368;2023-05-19T02:12:54;27.95;;;11.25;;
51838;SDS011;37886;53.174;6.368;2023-05-19T02:15:25;15.43;;;9.98;;
51838;SDS011;37886;53.174;6.368;2023-05-19T02:17:57;23.45;;;11.02;;
51838;SDS011;37886;53.174;6.368;2023-05-19T02:20:24;34.22;;;12.13;;
51838;SDS011;37886;53.174;6.368;2023-05-19T02:22:49;23.13;;;10.50;;
51838;SDS011;37886;53.174;6.368;2023-05-19T02:25:15;27.52;;;11.73;;
51838;SDS011;37886;53.174;6.368;2023-05-19T02:27:41;24.08;;;11.18;;
51838;SDS011;37886;53.174;6.368;2023-05-19T02:30:07;25.80;;;11.07;;
51838;SDS011;37886;53.174;6.368;2023-05-19T02:32:34;21.27;;;11.38;;
51838;SDS011;37886;53.174;6.368;2023-05-19T02:35:00;36.58;;;11.30;;
51838;SDS011;37886;53.174;6.368;2023-05-19T02:37:26;25.45;;;10.80;;
51838;SDS011;37886;53.174;6.368;2023-05-19T02:39:55;25.92;;;11.20;;
51838;SDS011;37886;53.174;6.368;2023-05-19T02:42:21;30.17;;;11.77;;
51838;SDS011;37886;53.174;6.368;2023-05-19T02:44:47;22.42;;;11.02;;
51838;SDS011;37886;53.174;6.368;2023-05-19T02:47:12;25.27;;;10.88;;
51838;SDS011;37886;53.174;6.368;2023-05-19T02:49:38;30.45;;;11.73;;
51838;SDS011;37886;53.174;6.368;2023-05-19T02:52:04;34.38;;;12.65;;
51838;SDS011;37886;53.174;6.368;2023-05-19T02:54:31;22.77;;;10.70;;
51838;SDS011;37886;53.174;6.368;2023-05-19T02:56:57;30.02;;;10.95;;
51838;SDS011;37886;53.174;6.368;2023-05-19T02:59:23;28.25;;;10.82;;
51838;SDS011;37886;53.174;6.368;2023-05-19T03:01:50;21.17;;;10.50;;
51838;SDS011;37886;53.174;6.368;2023-05-19T03:04:18;28.25;;;11.95;;
51838;SDS011;37886;53.174;6.368;2023-05-19T03:06:44;22.35;;;10.40;;
51838;SDS011;37886;53.174;6.368;2023-05-19T03:09:10;25.83;;;10.43;;
51838;SDS011;37886;53.174;6.368;2023-05-19T03:11:37;27.00;;;10.27;;
51838;SDS011;37886;53.174;6.368;2023-05-19T03:14:03;26.27;;;11.18;;
51838;SDS011;37886;53.174;6.368;2023-05-19T03:16:29;22.25;;;11.07;;
51838;SDS011;37886;53.174;6.368;2023-05-19T03:18:55;20.45;;;11.20;;
51838;SDS011;37886;53.174;6.368;2023-05-19T03:21:21;17.50;;;9.77;;
51838;SDS011;37886;53.174;6.368;2023-05-19T03:23:47;22.52;;;11.27;;
51838;SDS011;37886;53.174;6.368;2023-05-19T03:26:12;24.08;;;10.77;;
51838;SDS011;37886;53.174;6.368;2023-05-19T03:28:38;23.08;;;9.93;;
51838;SDS011;37886;53.174;6.368;2023-05-19T03:31:04;20.27;;;10.27;;
51838;SDS011;37886;53.174;6.368;2023-05-19T03:33:30;20.67;;;10.65;;
51838;SDS011;37886;53.174;6.368;2023-05-19T03:35:56;25.48;;;11.32;;
51838;SDS011;37886;53.174;6.368;2023-05-19T03:38:22;21.58;;;10.70;;
51838;SDS011;37886;53.174;6.368;2023-05-19T03:40:47;21.42;;;10.80;;
51838;SDS011;37886;53.174;6.368;2023-05-19T03:43:13;23.23;;;11.02;;
51838;SDS011;37886;53.174;6.368;2023-05-19T03:45:40;27.63;;;11.30;;
51838;SDS011;37886;53.174;6.368;2023-05-19T03:48:06;19.83;;;10.90;;
51838;SDS011;37886;53.174;6.368;2023-05-19T03:50:31;25.20;;;11.75;;
51838;SDS011;37886;53.174;6.368;2023-05-19T03:52:58;19.73;;;11.95;;
51838;SDS011;37886;53.174;6.368;2023-05-19T03:55:24;32.65;;;11.57;;
51838;SDS011;37886;53.174;6.368;2023-05-19T03:57:50;30.48;;;12.00;;
51838;SDS011;37886;53.174;6.368;2023-05-19T04:00:19;29.27;;;12.50;;
51838;SDS011;37886;53.174;6.368;2023-05-19T04:02:44;31.60;;;11.75;;
51838;SDS011;37886;53.174;6.368;2023-05-19T04:05:10;27.30;;;12.15;;
51838;SDS011;37886;53.174;6.368;2023-05-19T04:07:36;31.10;;;11.95;;
51838;SDS011;37886;53.174;6.368;2023-05-19T04:10:03;27.40;;;12.63;;
51838;SDS011;37886;53.174;6.368;2023-05-19T04:12:29;24.63;;;12.35;;
51838;SDS011;37886;53.174;6.368;2023-05-19T04:14:55;26.88;;;12.75;;
51838;SDS011;37886;53.174;6.368;2023-05-19T04:17:22;32.60;;;12.90;;
51838;SDS011;37886;53.174;6.368;2023-05-19T04:19:50;20.20;;;12.57;;
51838;SDS011;37886;53.174;6.368;2023-05-19T04:22:17;23.63;;;12.60;;
51838;SDS011;37886;53.174;6.368;2023-05-19T04:24:42;30.48;;;13.52;;
51838;SDS011;37886;53.174;6.368;2023-05-19T04:27:08;21.30;;;13.05;;
51838;SDS011;37886;53.174;6.368;2023-05-19T04:29:36;25.67;;;12.82;;
51838;SDS011;37886;53.174;6.368;2023-05-19T04:32:03;24.27;;;12.48;;
51838;SDS011;37886;53.174;6.368;2023-05-19T04:34:35;24.92;;;12.65;;
51838;SDS011;37886;53.174;6.368;2023-05-19T04:37:05;25.73;;;12.43;;
51838;SDS011;37886;53.174;6.368;2023-05-19T04:39:31;31.77;;;13.07;;
51838;SDS011;37886;53.174;6.368;2023-05-19T04:41:57;23.90;;;13.23;;
51838;SDS011;37886;53.174;6.368;2023-05-19T04:44:23;27.95;;;14.18;;
51838;SDS011;37886;53.174;6.368;2023-05-19T04:46:50;37.08;;;13.73;;
51838;SDS011;37886;53.174;6.368;2023-05-19T04:49:18;30.60;;;13.30;;
51838;SDS011;37886;53.174;6.368;2023-05-19T04:51:44;26.42;;;14.07;;
51838;SDS011;37886;53.174;6.368;2023-05-19T04:54:14;32.35;;;14.88;;
51838;SDS011;37886;53.174;6.368;2023-05-19T04:56:39;37.58;;;15.40;;
51838;SDS011;37886;53.174;6.368;2023-05-19T04:59:06;26.75;;;14.57;;
51838;SDS011;37886;53.174;6.368;2023-05-19T05:01:33;31.10;;;15.15;;
51838;SDS011;37886;53.174;6.368;2023-05-19T05:04:04;31.15;;;14.23;;
51838;SDS011;37886;53.174;6.368;2023-05-19T05:06:30;41.83;;;16.73;;
51838;SDS011;37886;53.174;6.368;2023-05-19T05:08:55;40.75;;;16.52;;
51838;SDS011;37886;53.174;6.368;2023-05-19T05:11:21;43.13;;;17.05;;
51838;SDS011;37886;53.174;6.368;2023-05-19T05:13:47;39.13;;;16.38;;
51838;SDS011;37886;53.174;6.368;2023-05-19T05:16:13;36.70;;;16.83;;
51838;SDS011;37886;53.174;6.368;2023-05-19T05:18:39;41.92;;;17.35;;
51838;SDS011;37886;53.174;6.368;2023-05-19T05:21:06;36.10;;;16.83;;
51838;SDS011;37886;53.174;6.368;2023-05-19T05:23:32;39.20;;;17.30;;
51838;SDS011;37886;53.174;6.368;2023-05-19T05:25:58;31.90;;;17.05;;
51838;SDS011;37886;53.174;6.368;2023-05-19T05:28:23;34.95;;;16.52;;
51838;SDS011;37886;53.174;6.368;2023-05-19T05:30:49;36.85;;;17.88;;
51838;SDS011;37886;53.174;6.368;2023-05-19T05:33:15;35.22;;;17.05;;
51838;SDS011;37886;53.174;6.368;2023-05-19T05:35:42;40.00;;;16.88;;
51838;SDS011;37886;53.174;6.368;2023-05-19T05:38:07;42.08;;;17.40;;
51838;SDS011;37886;53.174;6.368;2023-05-19T05:40:35;36.97;;;17.33;;
51838;SDS011;37886;53.174;6.368;2023-05-19T05:43:01;34.65;;;17.15;;
51838;SDS011;37886;53.174;6.368;2023-05-19T05:45:26;35.70;;;16.48;;
51838;SDS011;37886;53.174;6.368;2023-05-19T05:47:52;36.47;;;16.95;;
51838;SDS011;37886;53.174;6.368;2023-05-19T05:50:18;26.65;;;16.50;;
51838;SDS011;37886;53.174;6.368;2023-05-19T05:52:47;30.83;;;17.42;;
51838;SDS011;37886;53.174;6.368;2023-05-19T05:55:15;32.45;;;16.02;;
51838;SDS011;37886;53.174;6.368;2023-05-19T05:57:43;24.08;;;15.98;;
51838;SDS011;37886;53.174;6.368;2023-05-19T06:00:09;28.73;;;16.15;;
51838;SDS011;37886;53.174;6.368;2023-05-19T06:02:43;27.02;;;15.02;;
51838;SDS011;37886;53.174;6.368;2023-05-19T06:05:13;33.00;;;15.00;;
51838;SDS011;37886;53.174;6.368;2023-05-19T06:07:39;27.90;;;14.70;;
51838;SDS011;37886;53.174;6.368;2023-05-19T06:10:05;21.25;;;14.30;;
51838;SDS011;37886;53.174;6.368;2023-05-19T06:12:32;26.58;;;14.98;;
51838;SDS011;37886;53.174;6.368;2023-05-19T06:14:58;19.10;;;13.90;;
51838;SDS011;37886;53.174;6.368;2023-05-19T06:17:24;25.95;;;13.93;;
51838;SDS011;37886;53.174;6.368;2023-05-19T06:19:49;24.65;;;13.88;;
51838;SDS011;37886;53.174;6.368;2023-05-19T06:22:15;22.88;;;13.20;;
51838;SDS011;37886;53.174;6.368;2023-05-19T06:24:41;27.90;;;12.98;;
51838;SDS011;37886;53.174;6.368;2023-05-19T06:27:07;20.23;;;12.75;;
51838;SDS011;37886;53.174;6.368;2023-05-19T06:29:32;23.88;;;13.68;;
51838;SDS011;37886;53.174;6.368;2023-05-19T06:31:58;29.65;;;13.82;;
51838;SDS011;37886;53.174;6.368;2023-05-19T06:34:24;24.52;;;13.30;;
51838;SDS011;37886;53.174;6.368;2023-05-19T06:36:50;17.13;;;12.50;;
51838;SDS011;37886;53.174;6.368;2023-05-19T06:39:16;16.60;;;12.70;;
51838;SDS011;37886;53.174;6.368;2023-05-19T06:41:42;17.90;;;11.75;;
51838;SDS011;37886;53.174;6.368;2023-05-19T06:44:07;21.00;;;13.80;;
51838;SDS011;37886;53.174;6.368;2023-05-19T06:46:33;19.73;;;12.40;;
51838;SDS011;37886;53.174;6.368;2023-05-19T06:48:59;20.50;;;12.10;;
51838;SDS011;37886;53.174;6.368;2023-05-19T06:51:25;16.85;;;12.05;;
51838;SDS011;37886;53.174;6.368;2023-05-19T06:53:51;19.88;;;13.52;;
51838;SDS011;37886;53.174;6.368;2023-05-19T06:56:16;18.52;;;14.00;;
51838;SDS011;37886;53.174;6.368;2023-05-19T06:58:43;17.50;;;12.82;;
51838;SDS011;37886;53.174;6.368;2023-05-19T07:01:09;22.08;;;12.40;;
51838;SDS011;37886;53.174;6.368;2023-05-19T07:03:35;14.18;;;12.57;;
51838;SDS011;37886;53.174;6.368;2023-05-19T07:06:01;28.52;;;12.85;;
51838;SDS011;37886;53.174;6.368;2023-05-19T07:08:27;20.02;;;12.20;;
51838;SDS011;37886;53.174;6.368;2023-05-19T07:10:53;17.50;;;12.77;;
51838;SDS011;37886;53.174;6.368;2023-05-19T07:13:20;20.20;;;12.93;;
51838;SDS011;37886;53.174;6.368;2023-05-19T07:15:46;19.20;;;11.20;;
51838;SDS011;37886;53.174;6.368;2023-05-19T07:18:13;18.10;;;11.85;;
51838;SDS011;37886;53.174;6.368;2023-05-19T07:20:39;17.27;;;12.57;;
51838;SDS011;37886;53.174;6.368;2023-05-19T07:23:05;17.60;;;12.30;;
51838;SDS011;37886;53.174;6.368;2023-05-19T07:25:31;15.80;;;11.48;;
51838;SDS011;37886;53.174;6.368;2023-05-19T07:27:57;22.38;;;12.55;;
51838;SDS011;37886;53.174;6.368;2023-05-19T07:30:23;16.63;;;12.75;;
51838;SDS011;37886;53.174;6.368;2023-05-19T07:32:52;16.48;;;12.88;;
51838;SDS011;37886;53.174;6.368;2023-05-19T07:35:18;17.73;;;12.30;;
51838;SDS011;37886;53.174;6.368;2023-05-19T07:37:46;18.02;;;13.38;;
51838;SDS011;37886;53.174;6.368;2023-05-19T07:40:12;14.95;;;12.93;;
51838;SDS011;37886;53.174;6.368;2023-05-19T07:42:39;14.85;;;12.73;;
51838;SDS011;37886;53.174;6.368;2023-05-19T07:45:05;18.88;;;12.75;;
51838;SDS011;37886;53.174;6.368;2023-05-19T07:47:31;15.18;;;12.43;;
51838;SDS011;37886;53.174;6.368;2023-05-19T07:49:57;16.17;;;13.52;;
51838;SDS011;37886;53.174;6.368;2023-05-19T07:52:22;16.73;;;13.05;;
51838;SDS011;37886;53.174;6.368;2023-05-19T07:54:48;15.85;;;14.00;;
51838;SDS011;37886;53.174;6.368;2023-05-19T07:57:14;18.50;;;13.77;;
51838;SDS011;37886;53.174;6.368;2023-05-19T07:59:40;15.45;;;13.55;;
51838;SDS011;37886;53.174;6.368;2023-05-19T08:02:06;16.95;;;14.07;;
51838;SDS011;37886;53.174;6.368;2023-05-19T08:04:32;16.35;;;14.65;;
51838;SDS011;37886;53.174;6.368;2023-05-19T08:06:57;20.52;;;15.48;;
51838;SDS011;37886;53.174;6.368;2023-05-19T08:09:23;18.23;;;13.57;;
51838;SDS011;37886;53.174;6.368;2023-05-19T08:11:49;15.52;;;13.93;;
51838;SDS011;37886;53.174;6.368;2023-05-19T08:14:15;16.35;;;14.43;;
51838;SDS011;37886;53.174;6.368;2023-05-19T08:16:41;17.42;;;15.00;;
51838;SDS011;37886;53.174;6.368;2023-05-19T08:19:10;19.15;;;15.07;;
51838;SDS011;37886;53.174;6.368;2023-05-19T08:21:36;20.50;;;12.93;;
51838;SDS011;37886;53.174;6.368;2023-05-19T08:24:03;15.23;;;13.82;;
51838;SDS011;37886;53.174;6.368;2023-05-19T08:26:29;20.05;;;14.77;;
51838;SDS011;37886;53.174;6.368;2023-05-19T08:28:54;16.45;;;14.85;;
51838;SDS011;37886;53.174;6.368;2023-05-19T08:31:20;17.70;;;14.77;;
51838;SDS011;37886;53.174;6.368;2023-05-19T08:33:47;19.55;;;13.88;;
51838;SDS011;37886;53.174;6.368;2023-05-19T08:36:12;15.93;;;13.50;;
51838;SDS011;37886;53.174;6.368;2023-05-19T08:38:38;15.50;;;12.80;;
51838;SDS011;37886;53.174;6.368;2023-05-19T08:41:04;18.27;;;14.13;;
51838;SDS011;37886;53.174;6.368;2023-05-19T08:43:30;19.10;;;14.90;;
51838;SDS011;37886;53.174;6.368;2023-05-19T08:45:56;18.70;;;13.60;;
51838;SDS011;37886;53.174;6.368;2023-05-19T08:48:23;17.80;;;12.93;;
51838;SDS011;37886;53.174;6.368;2023-05-19T08:50:59;16.73;;;13.98;;
51838;SDS011;37886;53.174;6.368;2023-05-19T08:53:36;18.40;;;14.95;;
51838;SDS011;37886;53.174;6.368;2023-05-19T08:56:11;15.38;;;13.88;;
51838;SDS011;37886;53.174;6.368;2023-05-19T08:58:40;16.13;;;13.57;;
51838;SDS011;37886;53.174;6.368;2023-05-19T09:01:14;18.02;;;13.75;;
51838;SDS011;37886;53.174;6.368;2023-05-19T09:03:43;19.67;;;14.50;;
51838;SDS011;37886;53.174;6.368;2023-05-19T09:06:10;14.15;;;12.73;;
51838;SDS011;37886;53.174;6.368;2023-05-19T09:08:39;16.80;;;13.35;;
51838;SDS011;37886;53.174;6.368;2023-05-19T09:11:06;15.05;;;12.77;;
51838;SDS011;37886;53.174;6.368;2023-05-19T09:13:35;13.43;;;12.07;;
51838;SDS011;37886;53.174;6.368;2023-05-19T09:16:01;19.42;;;13.52;;
51838;SDS011;37886;53.174;6.368;2023-05-19T09:18:27;17.33;;;12.85;;
51838;SDS011;37886;53.174;6.368;2023-05-19T09:20:57;15.20;;;12.82;;
51838;SDS011;37886;53.174;6.368;2023-05-19T09:23:28;14.52;;;12.82;;
51838;SDS011;37886;53.174;6.368;2023-05-19T09:25:55;15.57;;;12.07;;
51838;SDS011;37886;53.174;6.368;2023-05-19T09:28:22;19.25;;;12.65;;
51838;SDS011;37886;53.174;6.368;2023-05-19T09:30:57;14.07;;;12.65;;
51838;SDS011;37886;53.174;6.368;2023-05-19T09:33:27;13.40;;;12.00;;
51838;SDS011;37886;53.174;6.368;2023-05-19T09:35:56;13.95;;;12.20;;
51838;SDS011;37886;53.174;6.368;2023-05-19T09:38:23;18.08;;;13.05;;
51838;SDS011;37886;53.174;6.368;2023-05-19T09:40:55;15.15;;;13.27;;
51838;SDS011;37886;53.174;6.368;2023-05-19T09:43:22;19.23;;;12.43;;
51838;SDS011;37886;53.174;6.368;2023-05-19T09:45:48;16.95;;;12.52;;
51838;SDS011;37886;53.174;6.368;2023-05-19T09:48:30;18.05;;;12.65;;
51838;SDS011;37886;53.174;6.368;2023-05-19T09:50:55;14.32;;;12.50;;
51838;SDS011;37886;53.174;6.368;2023-05-19T09:53:22;16.65;;;11.68;;
51838;SDS011;37886;53.174;6.368;2023-05-19T09:55:49;16.45;;;10.95;;
51838;SDS011;37886;53.174;6.368;2023-05-19T09:58:20;13.00;;;11.63;;
51838;SDS011;37886;53.174;6.368;2023-05-19T10:00:46;12.50;;;10.68;;
51838;SDS011;37886;53.174;6.368;2023-05-19T10:03:12;14.00;;;11.82;;
51838;SDS011;37886;53.174;6.368;2023-05-19T10:05:40;11.65;;;10.40;;
51838;SDS011;37886;53.174;6.368;2023-05-19T10:08:07;17.63;;;11.57;;
51838;SDS011;37886;53.174;6.368;2023-05-19T10:10:34;12.52;;;11.00;;
51838;SDS011;37886;53.174;6.368;2023-05-19T10:13:01;11.90;;;10.68;;
51838;SDS011;37886;53.174;6.368;2023-05-19T10:15:30;14.30;;;11.85;;
51838;SDS011;37886;53.174;6.368;2023-05-19T10:17:57;18.13;;;11.85;;
51838;SDS011;37886;53.174;6.368;2023-05-19T10:20:24;15.27;;;12.10;;
51838;SDS011;37886;53.174;6.368;2023-05-19T10:22:50;15.43;;;10.65;;
51838;SDS011;37886;53.174;6.368;2023-05-19T10:25:16;12.45;;;9.40;;
51838;SDS011;37886;53.174;6.368;2023-05-19T10:27:55;11.45;;;10.38;;
51838;SDS011;37886;53.174;6.368;2023-05-19T10:30:30;13.82;;;10.50;;
51838;SDS011;37886;53.174;6.368;2023-05-19T10:32:59;11.10;;;9.88;;
51838;SDS011;37886;53.174;6.368;2023-05-19T10:46:38;11.35;;;9.73;;
51838;SDS011;37886;53.174;6.368;2023-05-19T10:49:06;11.80;;;9.27;;
51838;SDS011;37886;53.174;6.368;2023-05-19T10:51:32;10.40;;;9.20;;
51838;SDS011;37886;53.174;6.368;2023-05-19T10:54:00;12.25;;;9.70;;
51838;SDS011;37886;53.174;6.368;2023-05-19T10:56:30;13.90;;;10.07;;
51838;SDS011;37886;53.174;6.368;2023-05-19T10:58:59;14.05;;;10.13;;
51838;SDS011;37886;53.174;6.368;2023-05-19T11:01:32;12.65;;;10.02;;
51838;SDS011;37886;53.174;6.368;2023-05-19T11:04:05;13.27;;;9.85;;
51838;SDS011;37886;53.174;6.368;2023-05-19T11:06:37;13.80;;;9.82;;
51838;SDS011;37886;53.174;6.368;2023-05-19T11:09:12;10.90;;;9.77;;
51838;SDS011;37886;53.174;6.368;2023-05-19T11:11:52;12.70;;;10.00;;
51838;SDS011;37886;53.174;6.368;2023-05-19T11:14:25;10.30;;;9.38;;
51838;SDS011;37886;53.174;6.368;2023-05-19T11:16:52;12.07;;;10.50;;
51838;SDS011;37886;53.174;6.368;2023-05-19T11:19:24;13.47;;;9.50;;
51838;SDS011;37886;53.174;6.368;2023-05-19T11:21:51;11.55;;;9.90;;
51838;SDS011;37886;53.174;6.368;2023-05-19T11:24:32;10.52;;;9.57;;
51838;SDS011;37886;53.174;6.368;2023-05-19T11:29:48;10.63;;;9.63;;
51838;SDS011;37886;53.174;6.368;2023-05-19T11:32:15;10.75;;;9.40;;
51838;SDS011;37886;53.174;6.368;2023-05-19T11:34:42;11.20;;;10.20;;
51838;SDS011;37886;53.174;6.368;2023-05-19T11:37:09;12.85;;;10.55;;
51838;SDS011;37886;53.174;6.368;2023-05-19T11:39:36;12.38;;;10.27;;
51838;SDS011;37886;53.174;6.368;2023-05-19T11:42:03;12.02;;;9.93;;
51838;SDS011;37886;53.174;6.368;2023-05-19T11:44:29;11.32;;;9.52;;
51838;SDS011;37886;53.174;6.368;2023-05-19T11:46:57;11.77;;;10.30;;
51838;SDS011;37886;53.174;6.368;2023-05-19T11:49:24;14.27;;;10.30;;
51838;SDS011;37886;53.174;6.368;2023-05-19T11:51:51;11.02;;;9.90;;
51838;SDS011;37886;53.174;6.368;2023-05-19T11:54:18;10.63;;;9.55;;
51838;SDS011;37886;53.174;6.368;2023-05-19T11:56:44;13.95;;;10.15;;
51838;SDS011;37886;53.174;6.368;2023-05-19T11:59:10;12.93;;;10.07;;
51838;SDS011;37886;53.174;6.368;2023-05-19T12:01:36;12.35;;;10.57;;
51838;SDS011;37886;53.174;6.368;2023-05-19T12:04:02;10.32;;;9.35;;
51838;SDS011;37886;53.174;6.368;2023-05-19T12:06:33;14.00;;;10.02;;
51838;SDS011;37886;53.174;6.368;2023-05-19T12:08:58;10.80;;;9.90;;
51838;SDS011;37886;53.174;6.368;2023-05-19T12:11:26;12.35;;;10.20;;
51838;SDS011;37886;53.174;6.368;2023-05-19T12:13:54;20.35;;;11.40;;
51838;SDS011;37886;53.174;6.368;2023-05-19T12:16:22;11.25;;;10.10;;
51838;SDS011;37886;53.174;6.368;2023-05-19T12:18:56;11.93;;;10.57;;
51838;SDS011;37886;53.174;6.368;2023-05-19T12:21:21;13.10;;;11.13;;
51838;SDS011;37886;53.174;6.368;2023-05-19T12:23:47;12.50;;;11.20;;
51838;SDS011;37886;53.174;6.368;2023-05-19T12:26:13;18.73;;;10.63;;
51838;SDS011;37886;53.174;6.368;2023-05-19T12:28:39;11.90;;;10.70;;
51838;SDS011;37886;53.174;6.368;2023-05-19T12:31:05;13.63;;;10.60;;
51838;SDS011;37886;53.174;6.368;2023-05-19T12:33:31;14.13;;;11.45;;
51838;SDS011;37886;53.174;6.368;2023-05-19T12:35:57;11.55;;;10.38;;
51838;SDS011;37886;53.174;6.368;2023-05-19T12:38:23;13.13;;;10.45;;
51838;SDS011;37886;53.174;6.368;2023-05-19T12:40:49;13.40;;;10.80;;
51838;SDS011;37886;53.174;6.368;2023-05-19T12:43:21;11.02;;;10.10;;
51838;SDS011;37886;53.174;6.368;2023-05-19T12:45:47;15.55;;;10.50;;
51838;SDS011;37886;53.174;6.368;2023-05-19T12:48:13;17.65;;;9.40;;
51838;SDS011;37886;53.174;6.368;2023-05-19T12:50:40;11.90;;;10.10;;
51838;SDS011;37886;53.174;6.368;2023-05-19T12:53:09;12.75;;;9.73;;
51838;SDS011;37886;53.174;6.368;2023-05-19T12:55:39;12.27;;;10.02;;
51838;SDS011;37886;53.174;6.368;2023-05-19T12:58:08;11.15;;;10.05;;
51838;SDS011;37886;53.174;6.368;2023-05-19T13:00:42;11.35;;;10.20;;
51838;SDS011;37886;53.174;6.368;2023-05-19T13:03:14;13.05;;;10.52;;
51838;SDS011;37886;53.174;6.368;2023-05-19T13:05:41;14.00;;;11.00;;
51838;SDS011;37886;53.174;6.368;2023-05-19T13:08:10;13.63;;;10.45;;
51838;SDS011;37886;53.174;6.368;2023-05-19T13:10:37;10.85;;;9.75;;
51838;SDS011;37886;53.174;6.368;2023-05-19T13:13:05;11.57;;;10.43;;
51838;SDS011;37886;53.174;6.368;2023-05-19T13:15:32;12.60;;;9.95;;
51838;SDS011;37886;53.174;6.368;2023-05-19T13:17:59;11.20;;;10.02;;
51838;SDS011;37886;53.174;6.368;2023-05-19T13:20:27;10.73;;;9.60;;
51838;SDS011;37886;53.174;6.368;2023-05-19T13:22:54;15.20;;;10.98;;
51838;SDS011;37886;53.174;6.368;2023-05-19T13:25:20;12.50;;;9.70;;
51838;SDS011;37886;53.174;6.368;2023-05-19T13:27:46;11.65;;;10.30;;
51838;SDS011;37886;53.174;6.368;2023-05-19T13:30:12;11.75;;;10.65;;
51838;SDS011;37886;53.174;6.368;2023-05-19T13:32:40;13.00;;;9.80;;
51838;SDS011;37886;53.174;6.368;2023-05-19T13:35:08;11.48;;;10.00;;
51838;SDS011;37886;53.174;6.368;2023-05-19T13:37:34;12.73;;;10.90;;
51838;SDS011;37886;53.174;6.368;2023-05-19T13:40:00;11.20;;;10.10;;
51838;SDS011;37886;53.174;6.368;2023-05-19T13:42:26;12.63;;;10.85;;
51838;SDS011;37886;53.174;6.368;2023-05-19T13:44:55;14.23;;;10.40;;
51838;SDS011;37886;53.174;6.368;2023-05-19T13:47:24;12.23;;;10.57;;
51838;SDS011;37886;53.174;6.368;2023-05-19T13:49:50;11.25;;;10.23;;
51838;SDS011;37886;53.174;6.368;2023-05-19T13:52:16;12.02;;;10.75;;
51838;SDS011;37886;53.174;6.368;2023-05-19T13:54:42;15.60;;;11.02;;
51838;SDS011;37886;53.174;6.368;2023-05-19T13:57:08;12.35;;;10.52;;
51838;SDS011;37886;53.174;6.368;2023-05-19T13:59:34;11.48;;;10.32;;
51838;SDS011;37886;53.174;6.368;2023-05-19T14:02:00;12.80;;;10.43;;
51838;SDS011;37886;53.174;6.368;2023-05-19T14:04:30;11.63;;;10.43;;
51838;SDS011;37886;53.174;6.368;2023-05-19T14:06:56;15.13;;;12.70;;
51838;SDS011;37886;53.174;6.368;2023-05-19T14:09:22;13.52;;;11.90;;
51838;SDS011;37886;53.174;6.368;2023-05-19T14:11:48;17.10;;;13.15;;
51838;SDS011;37886;53.174;6.368;2023-05-19T14:14:14;17.23;;;13.18;;
51838;SDS011;37886;53.174;6.368;2023-05-19T14:16:40;13.73;;;12.27;;
51838;SDS011;37886;53.174;6.368;2023-05-19T14:19:06;19.50;;;13.40;;
51838;SDS011;37886;53.174;6.368;2023-05-19T14:21:32;14.48;;;12.88;;
51838;SDS011;37886;53.174;6.368;2023-05-19T14:23:58;17.85;;;12.60;;
51838;SDS011;37886;53.174;6.368;2023-05-19T14:26:24;16.77;;;12.38;;
51838;SDS011;37886;53.174;6.368;2023-05-19T14:28:50;17.40;;;13.57;;
51838;SDS011;37886;53.174;6.368;2023-05-19T14:31:16;16.40;;;12.43;;
51838;SDS011;37886;53.174;6.368;2023-05-19T14:33:41;15.77;;;12.65;;
51838;SDS011;37886;53.174;6.368;2023-05-19T14:36:08;14.85;;;12.95;;
51838;SDS011;37886;53.174;6.368;2023-05-19T14:38:34;20.23;;;12.35;;
51838;SDS011;37886;53.174;6.368;2023-05-19T14:41:00;19.60;;;13.35;;
51838;SDS011;37886;53.174;6.368;2023-05-19T14:43:26;17.77;;;13.50;;
51838;SDS011;37886;53.174;6.368;2023-05-19T14:45:52;16.02;;;13.18;;
51838;SDS011;37886;53.174;6.368;2023-05-19T14:48:18;18.27;;;12.10;;
51838;SDS011;37886;53.174;6.368;2023-05-19T14:50:43;19.15;;;12.60;;